createdAt,value
2022-08-31T00:01:48.858Z,99.90
2022-08-31T00:04:35.438Z,99.90
2022-08-31T00:07:22.130Z,99.90
2022-08-31T00:10:14.535Z,99.90
2022-08-31T00:13:02.925Z,99.90
2022-08-31T00:15:50.332Z,99.90
2022-08-31T00:18:38.511Z,99.90
2022-08-31T00:21:26.498Z,99.90
2022-08-31T00:24:13.866Z,99.90
2022-08-31T00:27:00.009Z,99.90
2022-08-31T00:29:46.186Z,99.90
2022-08-31T00:32:32.687Z,99.90
2022-08-31T00:35:20.887Z,99.90
2022-08-31T00:38:07.595Z,99.90
2022-08-31T00:40:53.683Z,99.90
2022-08-31T00:43:45.358Z,99.90
2022-08-31T00:46:33.733Z,99.90
2022-08-31T00:49:22.782Z,99.90
2022-08-31T00:52:15.406Z,99.90
2022-08-31T00:55:05.084Z,99.90
2022-08-31T00:57:56.223Z,99.90
2022-08-31T01:00:45.034Z,99.90
2022-08-31T01:03:31.723Z,99.90
2022-08-31T01:06:19.222Z,99.90
2022-08-31T01:09:09.102Z,99.90
2022-08-31T01:11:55.576Z,99.90
2022-08-31T01:14:43.922Z,99.90
2022-08-31T01:17:32.013Z,99.90
2022-08-31T01:20:25.618Z,99.90
2022-08-31T01:23:17.644Z,99.90
2022-08-31T01:26:06.756Z,99.90
2022-08-31T01:28:57.299Z,99.90
2022-08-31T01:31:46.540Z,99.90
2022-08-31T01:34:34.128Z,99.90
2022-08-31T01:37:20.728Z,99.90
2022-08-31T01:40:17.840Z,99.90
2022-08-31T01:43:04.494Z,99.90
2022-08-31T01:45:50.974Z,99.90
2022-08-31T01:48:41.174Z,99.90
2022-08-31T01:51:28.185Z,99.90
2022-08-31T01:54:14.471Z,99.90
2022-08-31T01:57:02.268Z,99.90
2022-08-31T01:59:48.559Z,99.90
2022-08-31T02:02:35.853Z,99.90
2022-08-31T02:05:22.585Z,99.90
2022-08-31T02:08:11.544Z,99.90
2022-08-31T02:10:57.655Z,99.90
2022-08-31T02:13:45.648Z,99.90
2022-08-31T02:16:32.196Z,99.90
2022-08-31T02:19:19.166Z,99.90
2022-08-31T02:22:05.637Z,99.90
2022-08-31T02:24:52.002Z,99.90
2022-08-31T02:27:39.090Z,99.90
2022-08-31T02:30:26.668Z,99.90
2022-08-31T02:33:13.081Z,99.90
2022-08-31T02:36:00.174Z,99.90
2022-08-31T02:38:46.354Z,99.90
2022-08-31T02:41:32.906Z,99.90
2022-08-31T02:44:19.338Z,99.90
2022-08-31T02:47:07.430Z,99.90
2022-08-31T02:49:53.705Z,99.90
2022-08-31T02:52:40.294Z,99.90
2022-08-31T02:55:28.108Z,99.90
2022-08-31T02:58:17.106Z,99.90
2022-08-31T03:01:06.186Z,99.90
2022-08-31T03:03:54.164Z,99.90
2022-08-31T03:06:40.557Z,99.90
2022-08-31T03:09:27.092Z,99.90
2022-08-31T03:12:13.378Z,99.90
2022-08-31T03:14:59.805Z,99.90
2022-08-31T03:17:46.130Z,99.90
2022-08-31T03:20:34.779Z,99.90
2022-08-31T03:23:21.401Z,99.90
2022-08-31T03:26:08.322Z,99.90
2022-08-31T03:28:55.859Z,99.90
2022-08-31T03:31:42.514Z,99.90
2022-08-31T03:34:28.824Z,99.90
2022-08-31T03:37:16.408Z,99.90
2022-08-31T03:40:02.682Z,99.90
2022-08-31T03:42:49.989Z,99.90
2022-08-31T03:45:36.513Z,99.90
2022-08-31T03:48:23.119Z,99.90
2022-08-31T03:51:09.737Z,99.90
2022-08-31T03:53:57.855Z,99.90
2022-08-31T03:56:44.130Z,99.90
2022-08-31T03:59:30.666Z,99.90
2022-08-31T04:02:17.031Z,99.90
2022-08-31T04:05:03.633Z,99.90
2022-08-31T04:07:49.814Z,99.90
2022-08-31T04:10:39.999Z,99.90
2022-08-31T04:13:30.026Z,99.90
2022-08-31T04:16:19.612Z,99.90
2022-08-31T04:19:08.117Z,99.90
2022-08-31T04:21:55.933Z,99.90
2022-08-31T04:24:42.140Z,99.90
2022-08-31T04:27:30.218Z,99.90
2022-08-31T04:30:16.991Z,99.90
2022-08-31T04:33:03.431Z,99.90
2022-08-31T04:35:49.683Z,99.90
2022-08-31T04:38:36.671Z,99.90
2022-08-31T04:41:27.352Z,99.90
2022-08-31T04:44:19.672Z,99.90
2022-08-31T04:47:06.459Z,99.90
2022-08-31T04:49:52.997Z,99.90
2022-08-31T04:52:39.459Z,99.90
2022-08-31T04:55:27.551Z,99.90
2022-08-31T04:58:14.128Z,99.90
2022-08-31T05:01:01.824Z,99.90
2022-08-31T05:03:51.091Z,99.90
2022-08-31T05:06:39.867Z,99.90
2022-08-31T05:09:27.117Z,99.90
2022-08-31T05:12:13.685Z,99.90
2022-08-31T05:15:00.019Z,99.90
2022-08-31T05:17:47.906Z,99.90
2022-08-31T05:20:34.369Z,99.90
2022-08-31T05:23:20.916Z,99.90
2022-08-31T05:26:08.389Z,99.90
2022-08-31T05:28:55.822Z,99.90
2022-08-31T05:31:43.418Z,99.90
2022-08-31T05:34:31.158Z,99.90
2022-08-31T05:37:17.398Z,99.90
2022-08-31T05:40:04.589Z,99.90
2022-08-31T05:42:51.166Z,99.90
2022-08-31T05:45:37.334Z,99.90
2022-08-31T05:48:23.929Z,99.90
2022-08-31T05:51:19.569Z,99.90
2022-08-31T05:54:06.531Z,99.90
2022-08-31T05:56:52.895Z,99.90
2022-08-31T05:59:40.599Z,99.90
2022-08-31T06:02:27.491Z,99.90
2022-08-31T06:05:16.007Z,99.90
2022-08-31T06:08:04.378Z,99.90
2022-08-31T06:10:50.955Z,99.90
2022-08-31T06:13:38.635Z,99.90
2022-08-31T06:16:26.195Z,99.90
2022-08-31T06:19:15.240Z,99.90
2022-08-31T06:22:01.571Z,99.90
2022-08-31T06:24:49.287Z,99.90
2022-08-31T06:27:38.730Z,99.90
2022-08-31T06:30:27.300Z,99.90
2022-08-31T06:33:14.502Z,99.90
2022-08-31T06:36:00.957Z,99.90
2022-08-31T06:38:47.319Z,99.90
2022-08-31T06:41:37.258Z,99.90
2022-08-31T06:44:24.425Z,99.90
2022-08-31T06:47:10.837Z,99.90
2022-08-31T06:49:57.856Z,99.90
2022-08-31T06:52:44.134Z,99.90
2022-08-31T06:55:30.522Z,99.90
2022-08-31T06:58:18.723Z,99.90
2022-08-31T07:01:07.204Z,99.90
2022-08-31T07:03:53.610Z,99.90
2022-08-31T07:06:42.547Z,99.90
2022-08-31T07:09:29.012Z,99.90
2022-08-31T07:12:15.130Z,99.90
2022-08-31T07:15:03.100Z,99.90
2022-08-31T07:17:49.778Z,99.90
2022-08-31T07:20:36.492Z,99.90
2022-08-31T07:23:22.773Z,99.90
2022-08-31T07:26:11.433Z,99.90
2022-08-31T07:28:58.902Z,99.90
2022-08-31T07:31:47.146Z,99.90
2022-08-31T07:34:33.909Z,99.90
2022-08-31T07:37:37.840Z,99.90
2022-08-31T07:40:41.184Z,99.90
2022-08-31T07:43:28.620Z,99.90
2022-08-31T07:46:15.177Z,99.90
2022-08-31T07:49:03.159Z,99.90
2022-08-31T07:51:51.170Z,99.90
2022-08-31T07:54:37.975Z,99.90
2022-08-31T07:57:30.046Z,99.90
2022-08-31T08:00:21.335Z,99.90
2022-08-31T08:03:10.739Z,99.90
2022-08-31T08:05:58.573Z,99.90
2022-08-31T08:09:12.641Z,99.90
2022-08-31T08:12:01.192Z,99.90
2022-08-31T08:14:47.670Z,99.90
2022-08-31T08:17:34.120Z,99.90
2022-08-31T08:20:34.181Z,99.90
2022-08-31T08:23:27.850Z,99.90
2022-08-31T08:26:21.988Z,99.90
2022-08-31T08:29:09.167Z,99.90
2022-08-31T08:31:56.283Z,99.90
2022-08-31T08:34:43.995Z,99.90
2022-08-31T08:37:54.207Z,99.90
2022-08-31T08:40:42.692Z,99.90
2022-08-31T08:43:33.452Z,99.90
2022-08-31T08:47:37.922Z,99.90
2022-08-31T08:49:40.291Z,99.90
2022-08-31T08:52:30.045Z,99.90
2022-08-31T08:55:21.226Z,99.90
2022-08-31T08:58:13.618Z,99.90
2022-08-31T09:01:01.169Z,99.90
2022-08-31T09:03:58.466Z,99.90
2022-08-31T09:06:54.725Z,99.90
2022-08-31T09:09:48.529Z,99.90
2022-08-31T09:12:44.737Z,99.90
2022-08-31T09:15:44.328Z,99.90
2022-08-31T09:18:43.140Z,99.90
2022-08-31T09:21:34.410Z,99.90
2022-08-31T09:24:23.036Z,99.90
2022-08-31T09:27:18.453Z,99.90
2022-08-31T09:30:06.477Z,99.90
2022-08-31T09:32:58.591Z,99.90
2022-08-31T09:35:45.350Z,99.90
2022-08-31T09:38:35.030Z,99.90
2022-08-31T09:41:32.346Z,99.90
2022-08-31T09:44:25.516Z,99.90
2022-08-31T09:47:48.545Z,99.90
2022-08-31T09:50:45.102Z,99.90
2022-08-31T09:53:58.413Z,99.90
2022-08-31T09:56:56.119Z,99.90
2022-08-31T09:59:47.931Z,99.90
2022-08-31T10:02:38.049Z,99.90
2022-08-31T10:05:33.170Z,99.90
2022-08-31T10:08:34.726Z,99.90
2022-08-31T10:11:23.095Z,99.90
2022-08-31T10:14:27.151Z,99.90
2022-08-31T10:17:26.162Z,99.90
2022-08-31T10:20:18.552Z,99.90
2022-08-31T10:23:14.866Z,99.90
2022-08-31T10:26:07.325Z,99.90
2022-08-31T10:28:56.535Z,99.90
2022-08-31T10:31:48.713Z,99.90
2022-08-31T10:34:59.233Z,99.90
2022-08-31T10:37:55.048Z,99.90
2022-08-31T10:40:48.271Z,99.90
2022-08-31T10:43:46.007Z,99.90
2022-08-31T10:46:34.400Z,99.90
2022-08-31T10:49:21.357Z,99.90
2022-08-31T10:52:17.183Z,99.90
2022-08-31T10:55:15.210Z,99.90
2022-08-31T10:58:09.253Z,99.90
2022-08-31T11:01:04.405Z,99.90
2022-08-31T11:04:06.215Z,99.90
2022-08-31T11:06:59.375Z,99.90
2022-08-31T11:09:56.741Z,99.90
2022-08-31T11:12:49.486Z,99.90
2022-08-31T11:16:05.257Z,99.90
2022-08-31T11:19:27.151Z,99.90
2022-08-31T11:22:37.628Z,99.90
2022-08-31T11:25:53.015Z,99.90
2022-08-31T11:28:45.309Z,99.90
2022-08-31T11:31:34.784Z,99.90
2022-08-31T11:34:28.490Z,99.90
2022-08-31T11:37:55.754Z,99.90
2022-08-31T11:41:00.705Z,99.90
2022-08-31T11:43:53.784Z,99.90
2022-08-31T11:46:43.140Z,99.90
2022-08-31T11:49:39.274Z,99.90
2022-08-31T11:52:48.368Z,99.90
2022-08-31T11:55:47.955Z,99.90
2022-08-31T11:58:39.681Z,99.90
2022-08-31T12:01:36.307Z,99.90
2022-08-31T12:05:02.550Z,99.90
2022-08-31T12:07:49.856Z,99.90
2022-08-31T12:10:53.710Z,99.90
2022-08-31T12:13:49.535Z,99.90
2022-08-31T12:16:51.170Z,99.90
2022-08-31T12:20:02.575Z,99.90
2022-08-31T12:23:31.705Z,99.90
2022-08-31T12:26:34.417Z,99.70
2022-08-31T12:29:27.433Z,98.90
2022-08-31T12:32:21.222Z,99.30
2022-08-31T12:35:15.316Z,99.90
2022-08-31T12:38:05.785Z,99.90
2022-08-31T12:40:54.558Z,99.70
2022-08-31T12:43:44.554Z,98.50
2022-08-31T12:46:49.503Z,98.60
2022-08-31T12:49:50.584Z,97.90
2022-08-31T12:52:58.196Z,97.10
2022-08-31T12:55:55.494Z,97.60
2022-08-31T12:58:57.811Z,99.10
2022-08-31T13:01:48.264Z,99.90
2022-08-31T13:04:36.702Z,99.90
2022-08-31T13:07:32.519Z,99.90
2022-08-31T13:10:28.751Z,99.90
2022-08-31T13:13:26.614Z,99.90
2022-08-31T13:16:14.246Z,99.90
2022-08-31T13:19:05.403Z,99.90
2022-08-31T13:21:53.564Z,99.90
2022-08-31T13:24:42.801Z,99.90
2022-08-31T13:27:48.388Z,99.90
2022-08-31T13:30:39.084Z,99.90
2022-08-31T13:33:31.005Z,99.90
2022-08-31T13:36:30.299Z,99.90
2022-08-31T13:39:21.823Z,99.90
2022-08-31T13:42:10.122Z,99.90
2022-08-31T13:45:00.104Z,99.90
2022-08-31T13:47:57.079Z,99.90
2022-08-31T13:50:52.563Z,99.90
2022-08-31T13:53:42.251Z,99.40
2022-08-31T13:56:55.780Z,98.60
2022-08-31T13:59:42.209Z,98.80
2022-08-31T14:02:37.379Z,98.60
2022-08-31T14:05:31.726Z,97.90
2022-08-31T14:08:26.310Z,98.00
2022-08-31T14:11:15.426Z,97.80
2022-08-31T14:14:08.208Z,97.40
2022-08-31T14:17:03.264Z,97.60
2022-08-31T14:19:49.707Z,98.00
2022-08-31T14:22:45.579Z,97.50
2022-08-31T14:25:34.309Z,97.70
2022-08-31T14:28:28.000Z,97.90
2022-08-31T14:31:22.786Z,98.10
2022-08-31T14:34:20.107Z,97.90
2022-08-31T14:37:10.808Z,97.70
2022-08-31T14:40:07.156Z,97.50
2022-08-31T14:42:54.566Z,97.80
2022-08-31T14:45:44.322Z,97.80
2022-08-31T14:48:31.078Z,97.60
2022-08-31T14:51:17.658Z,97.70
2022-08-31T14:54:04.057Z,97.00
2022-08-31T14:56:54.451Z,96.90
2022-08-31T14:59:44.636Z,96.20
2022-08-31T15:02:35.587Z,96.00
2022-08-31T15:05:23.835Z,95.80
2022-08-31T15:08:11.007Z,96.00
2022-08-31T15:10:57.594Z,96.00
2022-08-31T15:13:45.730Z,95.60
2022-08-31T15:16:32.962Z,95.30
2022-08-31T15:19:19.335Z,95.50
2022-08-31T15:22:09.259Z,95.20
2022-08-31T15:24:56.264Z,95.10
2022-08-31T15:27:44.350Z,95.00
2022-08-31T15:30:33.725Z,94.30
2022-08-31T15:33:24.352Z,94.30
2022-08-31T15:36:15.355Z,93.90
2022-08-31T15:39:03.157Z,93.90
2022-08-31T15:41:50.078Z,93.90
2022-08-31T15:44:36.657Z,94.00
2022-08-31T15:47:43.951Z,94.00
2022-08-31T15:50:32.516Z,94.20
2022-08-31T15:53:21.610Z,94.50
2022-08-31T15:56:09.303Z,94.30
2022-08-31T15:58:58.438Z,94.60
2022-08-31T16:01:45.090Z,93.90
2022-08-31T16:04:38.275Z,93.60
2022-08-31T16:07:26.809Z,93.00
2022-08-31T16:10:16.688Z,92.40
2022-08-31T16:13:09.239Z,92.40
2022-08-31T16:15:55.396Z,92.30
2022-08-31T16:18:41.629Z,92.00
2022-08-31T16:21:29.263Z,92.10
2022-08-31T16:24:19.024Z,92.30
2022-08-31T16:27:08.004Z,92.00
2022-08-31T16:29:54.615Z,92.20
2022-08-31T16:35:28.408Z,92.10
2022-08-31T16:38:16.773Z,92.50
2022-08-31T16:41:03.592Z,92.30
2022-08-31T16:44:09.482Z,92.50
2022-08-31T16:46:56.550Z,92.40
2022-08-31T16:49:43.428Z,92.10
2022-08-31T16:52:31.685Z,92.20
2022-08-31T16:55:19.389Z,91.90
2022-08-31T16:58:05.765Z,91.70
2022-08-31T17:00:55.333Z,91.80
2022-08-31T17:03:42.546Z,91.90
2022-08-31T17:06:31.255Z,91.90
2022-08-31T17:09:22.382Z,92.00
2022-08-31T17:12:13.338Z,91.90
2022-08-31T17:15:03.589Z,91.70
2022-08-31T17:17:50.121Z,91.90
2022-08-31T17:20:37.453Z,91.70
2022-08-31T17:23:24.497Z,91.70
2022-08-31T17:26:12.500Z,91.80
2022-08-31T17:29:02.349Z,91.80
2022-08-31T17:31:50.382Z,92.00
2022-08-31T17:34:38.405Z,92.10
2022-08-31T17:37:27.694Z,92.20
2022-08-31T17:40:16.722Z,92.30
2022-08-31T17:43:03.478Z,92.30
2022-08-31T17:45:51.089Z,92.40
2022-08-31T17:48:41.918Z,92.50
2022-08-31T17:51:30.374Z,92.60
2022-08-31T17:54:19.879Z,92.70
2022-08-31T17:57:09.316Z,92.90
2022-08-31T17:59:55.871Z,93.10
2022-08-31T18:02:44.576Z,93.30
2022-08-31T18:05:32.758Z,93.50
2022-08-31T18:08:20.343Z,93.60
2022-08-31T18:11:07.558Z,93.80
2022-08-31T18:13:54.433Z,93.90
2022-08-31T18:16:41.741Z,94.00
2022-08-31T18:19:32.282Z,94.30
2022-08-31T18:22:19.686Z,94.60
2022-08-31T18:25:07.007Z,95.00
2022-08-31T18:27:53.521Z,95.30
2022-08-31T18:30:41.248Z,95.70
2022-08-31T18:33:28.851Z,95.90
2022-08-31T18:36:18.858Z,96.10
2022-08-31T18:39:13.316Z,96.40
2022-08-31T18:42:17.258Z,96.80
2022-08-31T18:45:22.110Z,97.00
2022-08-31T18:48:25.531Z,97.20
2022-08-31T18:51:15.396Z,97.50
2022-08-31T18:54:06.721Z,97.70
2022-08-31T18:56:54.377Z,98.10
2022-08-31T18:59:40.659Z,98.10
2022-08-31T19:02:27.723Z,98.30
2022-08-31T19:05:15.532Z,98.40
2022-08-31T19:08:02.527Z,98.60
2022-08-31T19:10:51.282Z,98.70
2022-08-31T19:13:38.582Z,98.90
2022-08-31T19:16:28.416Z,99.00
2022-08-31T19:19:15.199Z,99.10
2022-08-31T19:22:01.820Z,99.30
2022-08-31T19:24:48.194Z,99.50
2022-08-31T19:27:39.276Z,99.50
2022-08-31T19:30:28.297Z,99.70
2022-08-31T19:33:16.186Z,99.80
2022-08-31T19:36:04.608Z,99.90
2022-08-31T19:38:53.651Z,99.90
2022-08-31T19:41:49.246Z,99.90
2022-08-31T19:45:22.696Z,99.90
2022-08-31T19:47:48.063Z,99.90
2022-08-31T19:50:41.507Z,99.90
2022-08-31T19:53:28.686Z,99.90
2022-08-31T19:56:17.888Z,99.90
2022-08-31T19:59:04.798Z,99.90
2022-08-31T20:01:55.606Z,99.90
2022-08-31T20:04:42.287Z,99.90
2022-08-31T20:07:28.843Z,99.90
2022-08-31T20:10:16.415Z,99.90
2022-08-31T20:13:03.027Z,99.90
2022-08-31T20:15:49.458Z,99.90
2022-08-31T20:18:38.191Z,99.90
2022-08-31T20:21:27.202Z,99.90
2022-08-31T20:24:15.046Z,99.90
2022-08-31T20:27:01.715Z,99.90
2022-08-31T20:29:55.774Z,99.90
2022-08-31T20:32:41.951Z,99.90
2022-08-31T20:35:33.730Z,99.90
2022-08-31T20:38:20.986Z,99.90
2022-08-31T20:41:08.238Z,99.90
2022-08-31T20:43:56.764Z,99.90
2022-08-31T20:47:02.238Z,99.90
2022-08-31T20:49:53.535Z,99.90
2022-08-31T20:52:41.209Z,99.90
2022-08-31T20:55:27.851Z,99.90
2022-08-31T20:58:15.229Z,99.90
2022-08-31T21:01:04.609Z,99.90
2022-08-31T21:03:50.923Z,99.90
2022-08-31T21:06:40.166Z,99.90
2022-08-31T21:09:28.466Z,99.90
2022-08-31T21:12:17.831Z,99.90
2022-08-31T21:15:05.646Z,99.90
2022-08-31T21:17:56.095Z,99.90
2022-08-31T21:20:43.350Z,99.90
2022-08-31T21:23:31.593Z,99.90
2022-08-31T21:26:22.591Z,99.90
2022-08-31T21:29:10.606Z,99.90
2022-08-31T21:32:03.417Z,99.90
2022-08-31T21:34:50.246Z,99.90
2022-08-31T21:37:36.961Z,99.90
2022-08-31T21:40:23.467Z,99.90
2022-08-31T21:43:11.428Z,99.90
2022-08-31T21:46:02.663Z,99.90
2022-08-31T21:48:51.074Z,99.90
2022-08-31T21:51:42.059Z,99.90
2022-08-31T21:54:29.945Z,99.90
2022-08-31T21:57:17.723Z,99.90
2022-08-31T22:00:13.520Z,99.90
2022-08-31T22:03:01.166Z,99.90
2022-08-31T22:05:47.888Z,99.90
2022-08-31T22:08:34.371Z,99.90
2022-08-31T22:11:23.137Z,99.90
2022-08-31T22:14:11.611Z,99.90
2022-08-31T22:17:02.819Z,99.90
2022-08-31T22:19:49.942Z,99.90
2022-08-31T22:22:37.458Z,99.90
2022-08-31T22:25:24.237Z,99.90
2022-08-31T22:28:11.145Z,99.90
2022-08-31T22:30:57.422Z,99.90
2022-08-31T22:33:47.309Z,99.90
2022-08-31T22:36:34.588Z,99.90
2022-08-31T22:39:25.112Z,99.90
2022-08-31T22:42:11.838Z,99.90
2022-08-31T22:44:58.109Z,99.90
2022-08-31T22:47:49.851Z,99.90
2022-08-31T22:50:38.170Z,99.90
2022-08-31T22:53:24.739Z,99.90
2022-08-31T22:56:12.585Z,99.90
2022-08-31T22:59:01.054Z,99.90
2022-08-31T23:01:52.217Z,99.90
2022-08-31T23:04:43.990Z,99.90
2022-08-31T23:07:31.818Z,99.90
2022-08-31T23:10:19.972Z,99.90
2022-08-31T23:13:06.591Z,99.90
2022-08-31T23:15:53.178Z,99.90
2022-08-31T23:18:43.113Z,99.90
2022-08-31T23:21:35.505Z,99.90
2022-08-31T23:24:26.727Z,99.90
2022-08-31T23:27:15.305Z,99.90
2022-08-31T23:30:01.682Z,99.90
2022-08-31T23:32:48.774Z,99.90
2022-08-31T23:35:35.557Z,99.90
2022-08-31T23:38:21.965Z,99.90
2022-08-31T23:41:10.574Z,99.90
2022-08-31T23:44:02.479Z,99.90
2022-08-31T23:46:49.388Z,99.90
2022-08-31T23:49:35.874Z,99.90
2022-08-31T23:52:25.427Z,99.90
2022-08-31T23:55:12.420Z,99.90
2022-08-31T23:58:02.322Z,99.90
